createdAt,value
2022-12-18T00:01:18.556Z,18.45
2022-12-18T00:03:47.241Z,17.77
2022-12-18T00:06:15.653Z,18.50
2022-12-18T00:08:43.298Z,18.38
2022-12-18T00:11:14.630Z,16.73
2022-12-18T00:13:42.983Z,16.70
2022-12-18T00:16:14.718Z,18.55
2022-12-18T00:18:43.472Z,18.55
2022-12-18T00:21:13.859Z,18.02
2022-12-18T00:23:43.931Z,17.58
2022-12-18T00:26:14.130Z,17.88
2022-12-18T00:28:41.870Z,17.63
2022-12-18T00:31:11.732Z,18.77
2022-12-18T00:33:41.222Z,16.50
2022-12-18T00:36:12.765Z,18.25
2022-12-18T00:38:41.503Z,16.58
2022-12-18T00:41:11.027Z,17.67
2022-12-18T00:43:38.391Z,17.55
2022-12-18T00:46:07.050Z,17.67
2022-12-18T00:48:35.093Z,17.00
2022-12-18T00:51:04.253Z,17.65
2022-12-18T00:53:31.900Z,17.85
2022-12-18T00:55:59.595Z,16.85
2022-12-18T00:58:27.269Z,16.42
2022-12-18T01:00:54.937Z,16.73
2022-12-18T01:03:22.581Z,16.63
2022-12-18T01:05:50.310Z,16.73
2022-12-18T01:08:19.621Z,16.65
2022-12-18T01:10:47.300Z,16.40
2022-12-18T01:13:15.199Z,17.15
2022-12-18T01:15:42.925Z,16.35
2022-12-18T01:18:10.590Z,16.52
2022-12-18T01:20:40.031Z,17.02
2022-12-18T01:23:07.709Z,17.20
2022-12-18T01:25:37.624Z,16.17
2022-12-18T01:28:05.515Z,16.73
2022-12-18T01:30:33.196Z,17.27
2022-12-18T01:33:00.845Z,17.23
2022-12-18T01:35:28.548Z,15.15
2022-12-18T01:37:56.666Z,15.93
2022-12-18T01:40:24.401Z,17.15
2022-12-18T01:42:55.116Z,16.88
2022-12-18T01:45:29.248Z,15.43
2022-12-18T01:47:59.684Z,16.17
2022-12-18T01:50:32.536Z,15.35
2022-12-18T01:53:05.797Z,15.52
2022-12-18T01:55:39.115Z,15.82
2022-12-18T01:58:08.243Z,15.98
2022-12-18T02:00:36.178Z,16.05
2022-12-18T02:03:03.930Z,16.27
2022-12-18T02:05:42.105Z,15.68
2022-12-18T02:08:12.787Z,15.73
2022-12-18T02:10:47.821Z,16.60
2022-12-18T02:13:22.869Z,15.68
2022-12-18T02:16:00.253Z,15.05
2022-12-18T02:18:34.511Z,14.38
2022-12-18T02:21:10.990Z,15.00
2022-12-18T02:23:51.509Z,14.70
2022-12-18T02:26:27.860Z,15.45
2022-12-18T02:28:59.652Z,15.63
2022-12-18T02:31:30.460Z,14.57
2022-12-18T02:34:02.019Z,14.93
2022-12-18T02:36:31.654Z,14.95
2022-12-18T02:39:01.622Z,15.48
2022-12-18T02:41:31.944Z,14.25
2022-12-18T02:44:03.554Z,14.80
2022-12-18T02:46:35.115Z,14.63
2022-12-18T02:49:17.629Z,15.00
2022-12-18T02:51:52.741Z,14.45
2022-12-18T02:54:33.273Z,15.50
2022-12-18T02:57:13.412Z,14.13
2022-12-18T02:59:45.981Z,15.05
2022-12-18T03:02:23.696Z,13.27
2022-12-18T03:04:57.848Z,14.25
2022-12-18T03:07:35.280Z,14.55
2022-12-18T03:10:03.721Z,14.98
2022-12-18T03:12:37.466Z,13.27
2022-12-18T03:15:15.990Z,13.10
2022-12-18T03:17:50.848Z,14.38
2022-12-18T03:20:21.851Z,12.60
2022-12-18T03:22:55.739Z,13.57
2022-12-18T03:25:24.641Z,14.15
2022-12-18T03:27:58.746Z,12.02
2022-12-18T03:30:28.549Z,12.18
2022-12-18T03:33:03.775Z,11.55
2022-12-18T03:35:37.041Z,13.15
2022-12-18T03:38:04.807Z,12.00
2022-12-18T03:40:43.094Z,14.63
2022-12-18T03:43:18.861Z,12.43
2022-12-18T03:45:55.092Z,12.20
2022-12-18T03:48:31.446Z,12.95
2022-12-18T03:51:02.429Z,11.48
2022-12-18T03:53:38.796Z,10.63
2022-12-18T03:56:08.618Z,13.02
2022-12-18T03:58:40.795Z,12.68
2022-12-18T04:01:12.867Z,11.77
2022-12-18T04:03:43.166Z,11.70
2022-12-18T04:06:12.061Z,12.18
2022-12-18T04:08:41.066Z,12.23
2022-12-18T04:11:09.024Z,11.98
2022-12-18T04:13:39.800Z,12.60
2022-12-18T04:16:08.435Z,11.85
2022-12-18T04:18:36.373Z,11.52
2022-12-18T04:21:04.320Z,11.13
2022-12-18T04:23:31.961Z,11.52
2022-12-18T04:25:59.654Z,11.00
2022-12-18T04:28:27.316Z,10.93
2022-12-18T04:30:56.367Z,12.57
2022-12-18T04:33:24.095Z,10.60
2022-12-18T04:35:51.777Z,11.63
2022-12-18T04:38:19.459Z,11.88
2022-12-18T04:40:47.224Z,11.48
2022-12-18T04:43:14.923Z,11.23
2022-12-18T04:45:42.634Z,10.38
2022-12-18T04:48:11.636Z,11.13
2022-12-18T04:50:39.618Z,10.85
2022-12-18T04:53:08.700Z,12.57
2022-12-18T04:55:37.763Z,10.60
2022-12-18T04:58:05.904Z,11.70
2022-12-18T05:00:33.589Z,10.38
2022-12-18T05:03:03.468Z,10.20
2022-12-18T05:05:33.053Z,10.15
2022-12-18T05:08:01.709Z,10.30
2022-12-18T05:10:33.446Z,10.48
2022-12-18T05:13:05.373Z,10.68
2022-12-18T05:15:33.982Z,12.05
2022-12-18T05:18:02.721Z,10.18
2022-12-18T05:20:31.863Z,10.23
2022-12-18T05:22:59.537Z,10.48
2022-12-18T05:25:27.382Z,11.02
2022-12-18T05:27:55.209Z,10.50
2022-12-18T05:30:23.437Z,9.93
2022-12-18T05:32:51.106Z,10.45
2022-12-18T05:35:18.924Z,10.82
2022-12-18T05:37:47.947Z,9.85
2022-12-18T05:40:15.589Z,10.35
2022-12-18T05:42:48.005Z,10.07
2022-12-18T05:45:15.645Z,10.35
2022-12-18T05:47:43.343Z,10.05
2022-12-18T05:50:11.375Z,10.20
2022-12-18T05:52:39.078Z,10.02
2022-12-18T05:55:08.720Z,9.88
2022-12-18T05:57:36.394Z,10.75
2022-12-18T06:00:04.609Z,8.80
2022-12-18T06:02:32.365Z,9.23
2022-12-18T06:05:00.080Z,9.85
2022-12-18T06:07:27.776Z,10.05
2022-12-18T06:09:55.456Z,9.82
2022-12-18T06:12:24.520Z,9.77
2022-12-18T06:14:52.211Z,10.10
2022-12-18T06:17:19.878Z,9.38
2022-12-18T06:19:47.568Z,9.55
2022-12-18T06:22:15.266Z,9.45
2022-12-18T06:24:42.938Z,10.20
2022-12-18T06:27:10.650Z,9.70
2022-12-18T06:29:39.738Z,8.40
2022-12-18T06:32:07.467Z,8.85
2022-12-18T06:34:35.603Z,10.30
2022-12-18T06:37:03.275Z,9.80
2022-12-18T06:39:31.169Z,9.77
2022-12-18T06:41:58.892Z,9.75
2022-12-18T06:44:26.560Z,9.25
2022-12-18T06:46:55.595Z,9.25
2022-12-18T06:49:27.362Z,9.50
2022-12-18T06:51:57.905Z,9.57
2022-12-18T06:54:25.553Z,10.32
2022-12-18T06:56:53.201Z,9.85
2022-12-18T06:59:21.180Z,9.13
2022-12-18T07:01:48.900Z,8.45
2022-12-18T07:04:18.108Z,10.02
2022-12-18T07:06:45.770Z,9.65
2022-12-18T07:09:13.399Z,10.10
2022-12-18T07:11:41.196Z,10.10
2022-12-18T07:14:08.936Z,10.05
2022-12-18T07:16:36.610Z,9.45
2022-12-18T07:19:04.521Z,9.43
2022-12-18T07:21:33.626Z,9.98
2022-12-18T07:24:01.428Z,9.25
2022-12-18T07:26:29.089Z,9.35
2022-12-18T07:28:58.430Z,10.13
2022-12-18T07:31:26.961Z,9.05
2022-12-18T07:33:54.681Z,9.98
2022-12-18T07:36:22.348Z,10.18
2022-12-18T07:38:52.946Z,10.27
2022-12-18T07:41:21.392Z,9.75
2022-12-18T07:43:49.755Z,9.20
2022-12-18T07:46:18.593Z,10.00
2022-12-18T07:48:49.896Z,9.02
2022-12-18T07:51:19.039Z,9.07
2022-12-18T07:53:46.709Z,9.52
2022-12-18T07:56:27.030Z,9.82
2022-12-18T07:58:56.190Z,9.82
2022-12-18T08:01:24.167Z,9.57
2022-12-18T08:03:52.166Z,9.68
2022-12-18T08:06:24.179Z,10.30
2022-12-18T08:08:53.712Z,9.85
2022-12-18T08:11:23.611Z,9.48
2022-12-18T08:13:51.406Z,9.90
2022-12-18T08:16:20.101Z,10.68
2022-12-18T08:18:49.503Z,8.88
2022-12-18T08:21:20.607Z,9.57
2022-12-18T08:23:49.656Z,9.43
2022-12-18T08:26:19.000Z,9.73
2022-12-18T08:28:48.487Z,10.00
2022-12-18T08:31:16.986Z,10.32
2022-12-18T08:33:44.802Z,9.90
2022-12-18T08:36:12.653Z,10.70
2022-12-18T08:38:40.993Z,9.32
2022-12-18T08:41:11.467Z,10.63
2022-12-18T08:43:56.750Z,10.10
2022-12-18T08:46:27.820Z,10.65
2022-12-18T08:48:56.939Z,9.70
2022-12-18T08:51:24.696Z,9.65
2022-12-18T08:53:52.424Z,9.93
2022-12-18T08:56:20.163Z,10.52
2022-12-18T08:58:47.993Z,10.85
2022-12-18T09:01:15.823Z,11.13
2022-12-18T09:03:45.249Z,9.60
2022-12-18T09:06:16.647Z,10.48
2022-12-18T09:08:44.779Z,10.50
2022-12-18T09:11:16.919Z,9.05
2022-12-18T09:13:44.712Z,9.60
2022-12-18T09:16:12.402Z,10.07
2022-12-18T09:18:40.524Z,9.95
2022-12-18T09:21:14.644Z,9.48
2022-12-18T09:23:43.025Z,10.02
2022-12-18T09:26:11.174Z,9.90
2022-12-18T09:28:39.419Z,9.82
2022-12-18T09:31:09.411Z,10.73
2022-12-18T09:33:37.495Z,9.90
2022-12-18T09:36:07.652Z,10.07
2022-12-18T09:38:37.506Z,9.63
2022-12-18T09:41:17.372Z,9.80
2022-12-18T09:43:49.497Z,10.52
2022-12-18T09:46:26.422Z,10.32
2022-12-18T09:51:29.346Z,10.18
2022-12-18T09:54:03.176Z,10.40
2022-12-18T09:56:33.759Z,10.52
2022-12-18T09:59:02.991Z,11.00
2022-12-18T10:01:40.209Z,9.95
2022-12-18T10:04:11.623Z,10.80
2022-12-18T10:06:45.240Z,10.15
2022-12-18T10:09:22.492Z,10.48
2022-12-18T10:11:57.341Z,9.98
2022-12-18T10:14:31.519Z,10.18
2022-12-18T10:17:04.886Z,9.73
2022-12-18T10:19:41.913Z,10.10
2022-12-18T10:24:53.538Z,9.65
2022-12-18T10:27:25.767Z,11.07
2022-12-18T10:29:53.541Z,10.30
2022-12-18T10:32:23.683Z,10.18
2022-12-18T10:34:58.298Z,10.43
2022-12-18T10:37:30.782Z,10.25
2022-12-18T10:40:18.290Z,10.93
2022-12-18T10:43:04.809Z,10.95
2022-12-18T10:45:32.572Z,10.73
2022-12-18T10:48:00.699Z,11.02
2022-12-18T10:51:08.719Z,10.70
2022-12-18T10:53:23.638Z,10.60
2022-12-18T10:55:54.514Z,11.88
2022-12-18T10:58:26.881Z,13.55
2022-12-18T11:01:07.626Z,10.77
2022-12-18T11:03:37.710Z,10.98
2022-12-18T11:06:08.330Z,11.30
2022-12-18T11:08:36.392Z,10.77
2022-12-18T11:11:09.100Z,10.73
2022-12-18T11:13:36.849Z,11.13
2022-12-18T11:16:04.648Z,10.68
2022-12-18T11:18:35.648Z,10.65
2022-12-18T11:21:10.129Z,11.95
2022-12-18T11:23:39.425Z,10.38
2022-12-18T11:26:09.301Z,10.52
2022-12-18T11:28:41.428Z,10.30
2022-12-18T11:31:29.192Z,11.20
2022-12-18T11:36:50.125Z,10.68
2022-12-18T11:39:22.494Z,11.15
2022-12-18T11:42:13.394Z,10.98
2022-12-18T11:44:48.353Z,11.52
2022-12-18T11:47:27.269Z,10.75
2022-12-18T11:49:57.989Z,11.52
2022-12-18T11:52:29.300Z,11.73
2022-12-18T11:55:00.754Z,10.73
2022-12-18T11:57:40.405Z,10.30
2022-12-18T12:00:15.952Z,11.07
2022-12-18T12:03:10.170Z,10.85
2022-12-18T12:05:52.255Z,10.90
2022-12-18T12:08:30.402Z,10.55
2022-12-18T12:11:06.955Z,10.63
2022-12-18T12:13:50.517Z,10.40
2022-12-18T12:16:24.270Z,10.82
2022-12-18T12:19:17.616Z,10.38
2022-12-18T12:21:54.572Z,11.13
2022-12-18T12:24:32.806Z,10.38
2022-12-18T12:27:07.800Z,10.85
2022-12-18T12:29:49.742Z,10.57
2022-12-18T12:32:29.304Z,9.85
2022-12-18T12:35:10.232Z,11.77
2022-12-18T12:37:50.276Z,10.30
2022-12-18T12:40:50.319Z,10.88
2022-12-18T12:43:21.440Z,9.90
2022-12-18T12:45:54.391Z,10.80
2022-12-18T12:48:35.095Z,10.48
2022-12-18T12:51:09.248Z,11.57
2022-12-18T12:53:40.153Z,10.15
2022-12-18T12:56:11.674Z,10.55
2022-12-18T12:58:49.092Z,9.82
2022-12-18T13:01:30.731Z,9.43
2022-12-18T13:04:08.441Z,10.73
2022-12-18T13:06:46.283Z,10.82
2022-12-18T13:09:14.386Z,10.50
2022-12-18T13:12:01.155Z,10.25
2022-12-18T13:14:32.042Z,11.37
2022-12-18T13:17:19.358Z,10.63
2022-12-18T13:22:24.801Z,9.70
2022-12-18T13:24:53.373Z,10.00
2022-12-18T13:28:05.289Z,11.07
2022-12-18T13:30:50.937Z,10.27
2022-12-18T13:36:40.696Z,10.60
2022-12-18T13:39:35.169Z,9.40
2022-12-18T13:42:57.068Z,11.20
2022-12-18T13:45:42.174Z,10.48
2022-12-18T13:48:23.037Z,10.80
2022-12-18T13:50:55.887Z,11.35
2022-12-18T13:53:28.475Z,10.27
2022-12-18T13:55:56.773Z,10.90
2022-12-18T13:58:24.583Z,10.75
2022-12-18T14:00:52.430Z,11.80
2022-12-18T14:03:23.687Z,11.45
2022-12-18T14:06:00.705Z,11.27
2022-12-18T14:08:34.324Z,10.73
2022-12-18T14:11:04.367Z,11.57
2022-12-18T14:13:35.954Z,11.57
2022-12-18T14:16:07.411Z,11.40
2022-12-18T14:18:44.142Z,10.93
2022-12-18T14:21:22.214Z,12.07
2022-12-18T14:23:50.152Z,11.10
2022-12-18T14:26:25.515Z,10.38
2022-12-18T14:28:54.863Z,11.90
2022-12-18T14:31:24.497Z,12.18
2022-12-18T14:33:53.436Z,11.50
2022-12-18T14:36:24.588Z,10.60
2022-12-18T14:38:54.673Z,11.40
2022-12-18T14:41:23.997Z,11.60
2022-12-18T14:43:53.041Z,11.00
2022-12-18T14:46:30.555Z,11.40
2022-12-18T14:48:59.013Z,11.45
2022-12-18T14:51:29.950Z,12.82
2022-12-18T14:53:59.605Z,11.40
2022-12-18T14:56:29.278Z,10.55
2022-12-18T14:58:59.581Z,10.32
2022-12-18T15:01:33.512Z,10.85
2022-12-18T15:04:02.935Z,10.85
2022-12-18T15:06:37.666Z,9.98
2022-12-18T15:09:22.687Z,11.38
2022-12-18T15:11:51.370Z,10.20
2022-12-18T15:14:33.430Z,11.02
2022-12-18T15:17:02.382Z,10.38
2022-12-18T15:19:37.296Z,11.40
2022-12-18T15:22:06.965Z,11.77
2022-12-18T15:24:34.983Z,11.13
2022-12-18T15:27:03.081Z,10.93
2022-12-18T15:29:30.886Z,11.40
2022-12-18T15:32:04.031Z,10.88
2022-12-18T15:34:33.240Z,10.85
2022-12-18T15:37:00.935Z,11.18
2022-12-18T15:39:30.362Z,11.10
2022-12-18T15:42:15.438Z,11.57
2022-12-18T15:44:43.151Z,11.63
2022-12-18T15:47:14.589Z,10.80
2022-12-18T15:49:42.360Z,10.85
2022-12-18T15:52:14.448Z,11.07
2022-12-18T15:55:09.241Z,11.75
2022-12-18T15:57:37.180Z,11.02
2022-12-18T16:00:05.653Z,11.25
2022-12-18T16:02:33.537Z,11.38
2022-12-18T16:05:01.384Z,11.43
2022-12-18T16:07:30.751Z,11.57
2022-12-18T16:10:01.002Z,12.07
2022-12-18T16:12:30.532Z,9.43
2022-12-18T16:14:58.275Z,11.07
2022-12-18T16:17:25.990Z,11.38
2022-12-18T16:19:54.135Z,9.95
2022-12-18T16:22:23.822Z,11.40
2022-12-18T16:24:52.369Z,11.52
2022-12-18T16:27:22.020Z,10.70
2022-12-18T16:29:50.477Z,11.25
2022-12-18T16:32:20.482Z,11.95
2022-12-18T16:34:48.663Z,11.93
2022-12-18T16:37:17.602Z,11.63
2022-12-18T16:39:46.177Z,11.57
2022-12-18T16:42:17.562Z,10.68
2022-12-18T16:44:47.986Z,10.73
2022-12-18T16:47:16.418Z,11.40
2022-12-18T16:49:45.278Z,11.40
2022-12-18T16:52:13.212Z,11.13
2022-12-18T16:54:40.897Z,10.82
2022-12-18T16:57:08.622Z,11.88
2022-12-18T16:59:36.327Z,11.85
2022-12-18T17:02:05.688Z,11.52
2022-12-18T17:04:33.737Z,12.55
2022-12-18T17:07:01.417Z,11.77
2022-12-18T17:09:29.093Z,12.30
2022-12-18T17:11:57.201Z,13.30
2022-12-18T17:14:26.286Z,12.95
2022-12-18T17:17:19.931Z,12.90
2022-12-18T17:19:45.978Z,12.88
2022-12-18T17:22:13.703Z,12.40
2022-12-18T17:24:41.399Z,11.52
2022-12-18T17:27:09.488Z,12.43
2022-12-18T17:29:41.134Z,13.07
2022-12-18T17:32:13.001Z,12.95
2022-12-18T17:34:40.974Z,12.35
2022-12-18T17:37:10.454Z,11.75
2022-12-18T17:39:38.388Z,12.20
2022-12-18T17:42:06.771Z,12.13
2022-12-18T17:44:35.606Z,11.95
2022-12-18T17:47:03.497Z,11.95
2022-12-18T17:49:31.333Z,12.23
2022-12-18T17:51:59.106Z,11.48
2022-12-18T17:54:28.166Z,11.10
2022-12-18T17:56:55.826Z,11.63
2022-12-18T17:59:23.710Z,12.18
2022-12-18T18:01:51.525Z,12.48
2022-12-18T18:04:19.945Z,12.82
2022-12-18T18:06:47.767Z,12.55
2022-12-18T18:09:16.534Z,12.25
2022-12-18T18:12:04.489Z,11.60
2022-12-18T18:14:33.075Z,11.70
2022-12-18T18:17:04.811Z,12.80
2022-12-18T18:19:34.102Z,11.13
2022-12-18T18:22:02.958Z,11.85
2022-12-18T18:24:31.139Z,11.20
2022-12-18T18:27:00.596Z,12.98
2022-12-18T18:29:30.307Z,12.07
2022-12-18T18:31:58.261Z,12.20
2022-12-18T18:34:28.300Z,12.30
2022-12-18T18:36:55.980Z,11.85
2022-12-18T18:39:23.632Z,12.32
2022-12-18T18:41:52.086Z,12.35
2022-12-18T18:44:26.053Z,11.88
2022-12-18T18:46:54.929Z,12.40
2022-12-18T18:49:24.127Z,12.15
2022-12-18T18:51:52.119Z,11.85
2022-12-18T18:54:20.808Z,11.90
2022-12-18T18:59:39.077Z,12.10
2022-12-18T19:02:07.513Z,11.88
2022-12-18T19:04:36.498Z,11.93
2022-12-18T19:07:06.706Z,12.43
2022-12-18T19:09:36.172Z,12.35
2022-12-18T19:12:22.449Z,12.75
2022-12-18T19:14:51.584Z,11.63
2022-12-18T19:17:19.256Z,11.95
2022-12-18T19:19:46.987Z,11.63
2022-12-18T19:22:14.735Z,11.77
2022-12-18T19:24:42.416Z,11.77
2022-12-18T19:27:10.156Z,11.90
2022-12-18T19:29:37.912Z,11.27
2022-12-18T19:32:07.386Z,13.00
2022-12-18T19:34:35.151Z,11.48
2022-12-18T19:37:02.807Z,12.68
2022-12-18T19:39:30.643Z,12.07
2022-12-18T19:41:58.408Z,11.88
2022-12-18T19:44:26.814Z,12.48
2022-12-18T19:46:54.526Z,13.43
2022-12-18T19:49:23.560Z,12.38
2022-12-18T19:51:51.970Z,11.90
2022-12-18T19:54:19.793Z,12.15
2022-12-18T19:56:47.731Z,12.48
2022-12-18T19:59:15.444Z,11.90
2022-12-18T20:01:43.462Z,11.75
2022-12-18T20:04:11.334Z,12.07
2022-12-18T20:06:49.122Z,12.45
2022-12-18T20:09:17.902Z,13.02
2022-12-18T20:11:46.962Z,12.48
2022-12-18T20:14:21.147Z,12.75
2022-12-18T20:16:51.688Z,12.32
2022-12-18T20:19:19.923Z,12.85
2022-12-18T20:21:49.703Z,13.63
2022-12-18T20:24:17.409Z,13.23
2022-12-18T20:26:45.210Z,11.88
2022-12-18T20:29:12.858Z,11.55
2022-12-18T20:31:40.680Z,11.82
2022-12-18T20:34:08.453Z,12.68
2022-12-18T20:36:37.551Z,13.05
2022-12-18T20:39:08.754Z,12.30
2022-12-18T20:41:37.859Z,12.55
2022-12-18T20:44:10.980Z,12.88
2022-12-18T20:46:51.851Z,12.68
2022-12-18T20:49:19.681Z,13.65
2022-12-18T20:51:50.341Z,13.65
2022-12-18T20:54:19.432Z,12.32
2022-12-18T20:56:47.151Z,13.52
2022-12-18T20:59:14.877Z,12.13
2022-12-18T21:01:47.558Z,12.13
2022-12-18T21:04:17.510Z,12.18
2022-12-18T21:06:51.257Z,13.32
2022-12-18T21:09:22.329Z,13.13
2022-12-18T21:12:08.046Z,12.23
2022-12-18T21:14:38.576Z,12.35
2022-12-18T21:17:06.528Z,12.77
2022-12-18T21:19:34.230Z,12.40
2022-12-18T21:22:02.193Z,12.45
2022-12-18T21:24:32.700Z,12.55
2022-12-18T21:27:02.050Z,12.38
2022-12-18T21:29:30.011Z,13.20
2022-12-18T21:31:57.660Z,11.88
2022-12-18T21:34:27.341Z,13.85
2022-12-18T21:36:56.599Z,12.75
2022-12-18T21:39:26.002Z,14.02
2022-12-18T21:42:12.596Z,12.10
2022-12-18T21:44:42.243Z,12.88
2022-12-18T21:47:22.188Z,12.45
2022-12-18T21:49:50.210Z,12.13
2022-12-18T21:52:17.998Z,12.63
2022-12-18T21:54:45.648Z,12.73
2022-12-18T21:57:14.828Z,13.23
2022-12-18T21:59:43.805Z,12.82
2022-12-18T22:02:14.029Z,13.25
2022-12-18T22:04:42.215Z,12.23
2022-12-18T22:07:10.414Z,13.40
2022-12-18T22:09:39.272Z,12.15
2022-12-18T22:12:08.980Z,12.38
2022-12-18T22:14:38.337Z,13.52
2022-12-18T22:17:06.032Z,12.50
2022-12-18T22:19:41.111Z,12.82
2022-12-18T22:22:10.655Z,13.13
2022-12-18T22:24:38.356Z,12.90
2022-12-18T22:27:06.039Z,14.38
2022-12-18T22:29:51.172Z,13.85
2022-12-18T22:32:29.434Z,12.65
2022-12-18T22:35:05.957Z,12.80
2022-12-18T22:37:35.066Z,13.85
2022-12-18T22:40:03.940Z,12.98
2022-12-18T22:42:31.934Z,12.82
2022-12-18T22:45:00.282Z,13.38
2022-12-18T22:47:30.635Z,12.98
2022-12-18T22:49:58.687Z,13.73
2022-12-18T22:52:26.439Z,13.35
2022-12-18T22:54:54.506Z,12.65
2022-12-18T22:57:22.615Z,14.15
2022-12-18T22:59:50.377Z,13.25
2022-12-18T23:02:19.048Z,14.82
2022-12-18T23:04:48.532Z,13.02
2022-12-18T23:07:16.618Z,13.77
2022-12-18T23:09:44.843Z,13.05
2022-12-18T23:12:21.169Z,13.80
2022-12-18T23:14:49.183Z,13.95
2022-12-18T23:17:16.999Z,13.27
2022-12-18T23:19:49.065Z,12.15
2022-12-18T23:22:18.665Z,13.02
2022-12-18T23:24:47.076Z,13.73
2022-12-18T23:27:14.912Z,13.90
2022-12-18T23:29:42.585Z,14.27
2022-12-18T23:32:11.193Z,13.55
2022-12-18T23:34:38.885Z,12.90
2022-12-18T23:37:06.532Z,13.05
2022-12-18T23:39:35.550Z,13.85
2022-12-18T23:42:03.183Z,14.20
2022-12-18T23:44:30.934Z,14.27
2022-12-18T23:46:58.623Z,14.95
2022-12-18T23:49:26.311Z,13.30
2022-12-18T23:51:54.901Z,13.45
2022-12-18T23:54:30.155Z,12.85
2022-12-18T23:57:02.779Z,13.43
2022-12-18T23:59:30.487Z,13.18
